sensor_id;sensor_type;location;lat;lon;timestamp;pressure;altitude;pressure_sealevel;temperature;humidity
41947;BME280;27638;42.184;24.848;2022-07-18T00:01:37;100313.59;;;26.16;27.81
41947;BME280;27638;42.184;24.848;2022-07-18T00:04:03;100315.09;;;26.07;28.24
41947;BME280;27638;42.184;24.848;2022-07-18T00:06:28;100325.88;;;26.02;28.35
41947;BME280;27638;42.184;24.848;2022-07-18T00:08:54;100314.34;;;25.95;28.36
41947;BME280;27638;42.184;24.848;2022-07-18T00:11:21;100312.38;;;25.90;28.78
41947;BME280;27638;42.184;24.848;2022-07-18T00:13:47;100320.94;;;25.82;29.07
41947;BME280;27638;42.184;24.848;2022-07-18T00:16:12;100318.56;;;25.69;29.48
41947;BME280;27638;42.184;24.848;2022-07-18T00:18:38;100322.25;;;25.63;29.95
41947;BME280;27638;42.184;24.848;2022-07-18T00:21:04;100317.25;;;25.71;30.48
41947;BME280;27638;42.184;24.848;2022-07-18T00:23:29;100313.78;;;25.59;30.85
41947;BME280;27638;42.184;24.848;2022-07-18T00:25:55;100311.16;;;25.64;30.79
41947;BME280;27638;42.184;24.848;2022-07-18T00:28:20;100313.94;;;25.53;31.00
41947;BME280;27638;42.184;24.848;2022-07-18T00:30:46;100304.56;;;25.27;31.56
41947;BME280;27638;42.184;24.848;2022-07-18T00:33:11;100317.28;;;25.26;31.97
41947;BME280;27638;42.184;24.848;2022-07-18T00:35:37;100311.78;;;25.21;32.09
41947;BME280;27638;42.184;24.848;2022-07-18T00:38:03;100314.75;;;25.36;32.30
41947;BME280;27638;42.184;24.848;2022-07-18T00:40:29;100312.69;;;25.27;32.23
41947;BME280;27638;42.184;24.848;2022-07-18T00:42:55;100322.81;;;25.31;32.71
41947;BME280;27638;42.184;24.848;2022-07-18T00:45:21;100311.38;;;25.29;32.63
41947;BME280;27638;42.184;24.848;2022-07-18T00:47:46;100309.97;;;25.27;32.74
41947;BME280;27638;42.184;24.848;2022-07-18T00:50:12;100328.53;;;25.18;33.08
41947;BME280;27638;42.184;24.848;2022-07-18T00:52:38;100328.53;;;25.18;32.92
41947;BME280;27638;42.184;24.848;2022-07-18T00:55:06;100329.56;;;25.00;33.10
41947;BME280;27638;42.184;24.848;2022-07-18T00:57:32;100331.06;;;25.08;33.25
41947;BME280;27638;42.184;24.848;2022-07-18T00:59:57;100338.31;;;25.19;32.91
41947;BME280;27638;42.184;24.848;2022-07-18T01:02:41;100336.31;;;25.14;33.23
41947;BME280;27638;42.184;24.848;2022-07-18T01:05:08;100338.22;;;25.14;33.11
41947;BME280;27638;42.184;24.848;2022-07-18T01:07:35;100344.13;;;25.11;33.32
41947;BME280;27638;42.184;24.848;2022-07-18T01:10:02;100348.63;;;25.05;33.10
41947;BME280;27638;42.184;24.848;2022-07-18T01:12:27;100348.03;;;25.03;33.49
41947;BME280;27638;42.184;24.848;2022-07-18T01:14:53;100347.22;;;25.03;33.31
41947;BME280;27638;42.184;24.848;2022-07-18T01:17:21;100339.91;;;24.92;33.27
41947;BME280;27638;42.184;24.848;2022-07-18T01:19:47;100336.84;;;24.88;33.12
41947;BME280;27638;42.184;24.848;2022-07-18T01:22:14;100338.16;;;24.86;32.60
41947;BME280;27638;42.184;24.848;2022-07-18T01:24:40;100335.34;;;24.80;32.42
41947;BME280;27638;42.184;24.848;2022-07-18T01:27:06;100338.88;;;24.81;32.22
41947;BME280;27638;42.184;24.848;2022-07-18T01:29:32;100339.88;;;24.63;31.96
41947;BME280;27638;42.184;24.848;2022-07-18T01:32:08;100340.16;;;24.50;31.79
41947;BME280;27638;42.184;24.848;2022-07-18T01:34:34;100332.88;;;24.39;31.56
41947;BME280;27638;42.184;24.848;2022-07-18T01:37:00;100337.09;;;24.46;31.33
41947;BME280;27638;42.184;24.848;2022-07-18T01:39:26;100331.56;;;24.41;31.21
41947;BME280;27638;42.184;24.848;2022-07-18T01:42:03;100330.28;;;24.44;31.03
41947;BME280;27638;42.184;24.848;2022-07-18T01:44:29;100338.66;;;24.31;30.82
41947;BME280;27638;42.184;24.848;2022-07-18T01:46:55;100336.88;;;24.13;31.16
41947;BME280;27638;42.184;24.848;2022-07-18T01:49:21;100338.88;;;24.17;30.94
41947;BME280;27638;42.184;24.848;2022-07-18T01:51:49;100334.66;;;24.10;30.72
41947;BME280;27638;42.184;24.848;2022-07-18T01:54:15;100331.44;;;23.89;30.98
41947;BME280;27638;42.184;24.848;2022-07-18T01:56:41;100343.59;;;23.99;30.96
41947;BME280;27638;42.184;24.848;2022-07-18T01:59:07;100337.47;;;24.03;30.67
41947;BME280;27638;42.184;24.848;2022-07-18T02:01:32;100336.06;;;24.12;30.58
41947;BME280;27638;42.184;24.848;2022-07-18T02:03:58;100330.38;;;23.91;30.94
41947;BME280;27638;42.184;24.848;2022-07-18T02:06:23;100339.56;;;23.89;30.94
41947;BME280;27638;42.184;24.848;2022-07-18T02:08:49;100344.06;;;23.42;31.42
41947;BME280;27638;42.184;24.848;2022-07-18T02:11:14;100340.06;;;23.45;31.51
41947;BME280;27638;42.184;24.848;2022-07-18T02:13:40;100344.41;;;23.46;31.46
41947;BME280;27638;42.184;24.848;2022-07-18T02:16:06;100322.69;;;23.11;31.66
41947;BME280;27638;42.184;24.848;2022-07-18T02:18:31;100342.78;;;23.15;31.95
41947;BME280;27638;42.184;24.848;2022-07-18T02:21:01;100349.38;;;23.19;32.10
41947;BME280;27638;42.184;24.848;2022-07-18T02:23:27;100346.91;;;23.17;32.50
41947;BME280;27638;42.184;24.848;2022-07-18T02:25:53;100353.31;;;23.05;32.48
41947;BME280;27638;42.184;24.848;2022-07-18T02:28:19;100354.25;;;22.99;32.82
41947;BME280;27638;42.184;24.848;2022-07-18T02:30:45;100363.53;;;22.84;33.11
41947;BME280;27638;42.184;24.848;2022-07-18T02:33:10;100355.94;;;22.75;32.98
41947;BME280;27638;42.184;24.848;2022-07-18T02:38:01;100363.22;;;22.74;33.22
41947;BME280;27638;42.184;24.848;2022-07-18T02:40:27;100367.88;;;22.67;33.61
41947;BME280;27638;42.184;24.848;2022-07-18T02:42:52;100352.72;;;22.66;33.86
41947;BME280;27638;42.184;24.848;2022-07-18T02:45:17;100358.13;;;22.84;33.78
41947;BME280;27638;42.184;24.848;2022-07-18T02:47:43;100363.31;;;22.86;33.79
41947;BME280;27638;42.184;24.848;2022-07-18T02:50:09;100373.06;;;22.87;33.86
41947;BME280;27638;42.184;24.848;2022-07-18T02:52:35;100367.28;;;22.83;34.31
41947;BME280;27638;42.184;24.848;2022-07-18T02:55:01;100367.94;;;22.79;34.50
41947;BME280;27638;42.184;24.848;2022-07-18T02:57:27;100359.31;;;22.70;35.42
41947;BME280;27638;42.184;24.848;2022-07-18T02:59:53;100366.44;;;22.65;35.44
41947;BME280;27638;42.184;24.848;2022-07-18T03:02:18;100363.22;;;22.56;35.50
41947;BME280;27638;42.184;24.848;2022-07-18T03:04:44;100360.53;;;22.38;36.12
41947;BME280;27638;42.184;24.848;2022-07-18T03:07:09;100371.16;;;22.33;36.26
41947;BME280;27638;42.184;24.848;2022-07-18T03:09:35;100352.50;;;22.31;36.36
41947;BME280;27638;42.184;24.848;2022-07-18T03:12:00;100361.50;;;22.43;36.16
41947;BME280;27638;42.184;24.848;2022-07-18T03:14:25;100363.97;;;22.26;36.54
41947;BME280;27638;42.184;24.848;2022-07-18T03:16:51;100369.59;;;22.43;36.50
41947;BME280;27638;42.184;24.848;2022-07-18T03:19:16;100365.31;;;22.36;36.56
41947;BME280;27638;42.184;24.848;2022-07-18T03:21:42;100368.53;;;22.26;36.76
41947;BME280;27638;42.184;24.848;2022-07-18T03:24:08;100379.50;;;22.31;36.49
41947;BME280;27638;42.184;24.848;2022-07-18T03:26:33;100373.41;;;22.17;36.76
41947;BME280;27638;42.184;24.848;2022-07-18T03:28:59;100370.78;;;22.29;36.58
41947;BME280;27638;42.184;24.848;2022-07-18T03:31:24;100380.31;;;22.32;36.60
41947;BME280;27638;42.184;24.848;2022-07-18T03:33:50;100377.94;;;22.42;36.26
41947;BME280;27638;42.184;24.848;2022-07-18T03:36:15;100347.91;;;22.13;36.10
41947;BME280;27638;42.184;24.848;2022-07-18T03:38:41;100375.38;;;22.28;36.12
41947;BME280;27638;42.184;24.848;2022-07-18T03:41:10;100377.16;;;22.35;35.67
41947;BME280;27638;42.184;24.848;2022-07-18T03:43:39;100378.28;;;22.27;35.86
41947;BME280;27638;42.184;24.848;2022-07-18T03:46:05;100388.94;;;22.40;35.79
41947;BME280;27638;42.184;24.848;2022-07-18T03:48:31;100384.00;;;22.74;34.60
41947;BME280;27638;42.184;24.848;2022-07-18T03:50:56;100394.44;;;22.88;34.43
41947;BME280;27638;42.184;24.848;2022-07-18T03:53:22;100397.22;;;22.82;34.30
41947;BME280;27638;42.184;24.848;2022-07-18T03:55:47;100390.25;;;22.92;34.24
41947;BME280;27638;42.184;24.848;2022-07-18T03:58:13;100394.31;;;23.02;34.27
41947;BME280;27638;42.184;24.848;2022-07-18T04:00:38;100401.84;;;23.11;33.80
41947;BME280;27638;42.184;24.848;2022-07-18T04:03:04;100399.09;;;22.81;34.47
41947;BME280;27638;42.184;24.848;2022-07-18T04:05:29;100419.66;;;23.01;34.44
41947;BME280;27638;42.184;24.848;2022-07-18T04:07:55;100414.19;;;22.89;34.88
41947;BME280;27638;42.184;24.848;2022-07-18T04:10:20;100427.75;;;22.82;35.23
41947;BME280;27638;42.184;24.848;2022-07-18T04:12:51;100434.22;;;23.00;36.10
41947;BME280;27638;42.184;24.848;2022-07-18T04:15:18;100431.75;;;22.98;36.55
41947;BME280;27638;42.184;24.848;2022-07-18T04:17:44;100419.94;;;23.11;36.15
41947;BME280;27638;42.184;24.848;2022-07-18T04:20:11;100432.72;;;23.04;36.73
41947;BME280;27638;42.184;24.848;2022-07-18T04:25:14;100431.09;;;23.33;35.87
41947;BME280;27638;42.184;24.848;2022-07-18T04:27:40;100436.03;;;23.36;35.73
41947;BME280;27638;42.184;24.848;2022-07-18T04:30:06;100444.19;;;23.47;36.03
41947;BME280;27638;42.184;24.848;2022-07-18T04:32:32;100445.63;;;23.92;35.56
41947;BME280;27638;42.184;24.848;2022-07-18T04:34:57;100451.81;;;24.22;34.83
41947;BME280;27638;42.184;24.848;2022-07-18T04:37:22;100449.00;;;24.17;34.99
41947;BME280;27638;42.184;24.848;2022-07-18T04:39:48;100459.09;;;24.10;34.78
41947;BME280;27638;42.184;24.848;2022-07-18T04:42:13;100458.88;;;24.23;34.33
41947;BME280;27638;42.184;24.848;2022-07-18T04:44:39;100464.06;;;24.25;34.66
41947;BME280;27638;42.184;24.848;2022-07-18T04:47:04;100468.09;;;24.34;34.43
41947;BME280;27638;42.184;24.848;2022-07-18T04:49:30;100471.59;;;24.23;34.77
41947;BME280;27638;42.184;24.848;2022-07-18T04:51:56;100461.03;;;24.33;34.56
41947;BME280;27638;42.184;24.848;2022-07-18T04:54:21;100465.50;;;24.50;34.10
41947;BME280;27638;42.184;24.848;2022-07-18T04:56:47;100465.75;;;24.49;34.42
41947;BME280;27638;42.184;24.848;2022-07-18T04:59:12;100465.97;;;24.36;35.21
41947;BME280;27638;42.184;24.848;2022-07-18T05:01:38;100471.03;;;24.56;34.47
41947;BME280;27638;42.184;24.848;2022-07-18T05:04:03;100465.72;;;24.84;33.91
41947;BME280;27638;42.184;24.848;2022-07-18T05:06:29;100471.34;;;24.94;33.59
41947;BME280;27638;42.184;24.848;2022-07-18T05:08:54;100474.75;;;24.90;33.79
41947;BME280;27638;42.184;24.848;2022-07-18T05:11:20;100471.06;;;25.31;33.79
41947;BME280;27638;42.184;24.848;2022-07-18T05:13:45;100470.09;;;25.37;32.65
41947;BME280;27638;42.184;24.848;2022-07-18T05:16:11;100469.00;;;25.78;33.18
41947;BME280;27638;42.184;24.848;2022-07-18T05:18:36;100467.06;;;26.24;32.60
41947;BME280;27638;42.184;24.848;2022-07-18T05:21:02;100461.34;;;26.37;31.75
41947;BME280;27638;42.184;24.848;2022-07-18T05:23:27;100464.19;;;26.64;30.21
41947;BME280;27638;42.184;24.848;2022-07-18T05:25:53;100455.34;;;26.95;29.64
41947;BME280;27638;42.184;24.848;2022-07-18T05:28:18;100450.88;;;26.84;29.56
41947;BME280;27638;42.184;24.848;2022-07-18T05:30:44;100448.66;;;26.81;28.75
41947;BME280;27638;42.184;24.848;2022-07-18T05:33:09;100450.88;;;26.84;28.74
41947;BME280;27638;42.184;24.848;2022-07-18T05:35:35;100441.81;;;27.17;28.34
41947;BME280;27638;42.184;24.848;2022-07-18T05:38:00;100452.25;;;27.25;27.60
41947;BME280;27638;42.184;24.848;2022-07-18T05:40:26;100453.00;;;27.21;27.22
41947;BME280;27638;42.184;24.848;2022-07-18T05:42:51;100463.56;;;27.17;26.05
41947;BME280;27638;42.184;24.848;2022-07-18T05:45:17;100457.13;;;27.23;26.62
41947;BME280;27638;42.184;24.848;2022-07-18T05:47:42;100435.63;;;27.49;26.43
41947;BME280;27638;42.184;24.848;2022-07-18T05:50:08;100455.22;;;27.73;26.40
41947;BME280;27638;42.184;24.848;2022-07-18T05:52:34;100450.66;;;27.56;25.22
41947;BME280;27638;42.184;24.848;2022-07-18T05:54:59;100451.22;;;27.58;25.49
41947;BME280;27638;42.184;24.848;2022-07-18T05:57:26;100451.38;;;28.01;25.36
41947;BME280;27638;42.184;24.848;2022-07-18T05:59:51;100447.50;;;27.91;25.96
41947;BME280;27638;42.184;24.848;2022-07-18T06:02:17;100447.94;;;28.10;25.58
41947;BME280;27638;42.184;24.848;2022-07-18T06:04:42;100457.34;;;27.97;25.91
41947;BME280;27638;42.184;24.848;2022-07-18T06:07:08;100455.19;;;27.99;25.72
41947;BME280;27638;42.184;24.848;2022-07-18T06:09:33;100455.66;;;27.91;25.32
41947;BME280;27638;42.184;24.848;2022-07-18T06:11:59;100447.50;;;27.91;25.77
41947;BME280;27638;42.184;24.848;2022-07-18T06:14:27;100450.56;;;28.00;25.33
41947;BME280;27638;42.184;24.848;2022-07-18T06:16:52;100448.44;;;28.07;25.30
41947;BME280;27638;42.184;24.848;2022-07-18T06:19:18;100445.09;;;28.27;24.47
41947;BME280;27638;42.184;24.848;2022-07-18T06:21:43;100448.84;;;28.21;24.71
41947;BME280;27638;42.184;24.848;2022-07-18T06:24:09;100450.66;;;28.42;24.51
41947;BME280;27638;42.184;24.848;2022-07-18T06:26:34;100462.72;;;28.19;23.90
41947;BME280;27638;42.184;24.848;2022-07-18T06:29:00;100460.53;;;28.53;24.16
41947;BME280;27638;42.184;24.848;2022-07-18T06:31:25;100468.09;;;28.88;24.24
41947;BME280;27638;42.184;24.848;2022-07-18T06:33:51;100465.09;;;28.85;24.23
41947;BME280;27638;42.184;24.848;2022-07-18T06:36:16;100466.69;;;28.39;23.92
41947;BME280;27638;42.184;24.848;2022-07-18T06:38:42;100457.78;;;28.48;23.83
41947;BME280;27638;42.184;24.848;2022-07-18T06:41:08;100465.38;;;28.88;23.58
41947;BME280;27638;42.184;24.848;2022-07-18T06:43:33;100457.50;;;28.92;23.77
41947;BME280;27638;42.184;24.848;2022-07-18T06:45:59;100451.72;;;29.46;23.00
41947;BME280;27638;42.184;24.848;2022-07-18T06:48:24;100462.13;;;29.64;22.64
41947;BME280;27638;42.184;24.848;2022-07-18T06:50:50;100462.75;;;30.07;21.91
41947;BME280;27638;42.184;24.848;2022-07-18T06:53:15;100451.28;;;30.25;21.37
41947;BME280;27638;42.184;24.848;2022-07-18T06:55:41;100455.91;;;30.35;21.77
41947;BME280;27638;42.184;24.848;2022-07-18T06:58:06;100454.81;;;30.31;21.56
41947;BME280;27638;42.184;24.848;2022-07-18T07:00:32;100457.53;;;30.41;21.92
41947;BME280;27638;42.184;24.848;2022-07-18T07:02:57;100460.53;;;30.65;21.94
41947;BME280;27638;42.184;24.848;2022-07-18T07:05:24;100447.94;;;30.74;20.49
41947;BME280;27638;42.184;24.848;2022-07-18T07:07:49;100450.53;;;31.15;20.73
41947;BME280;27638;42.184;24.848;2022-07-18T07:10:17;100450.91;;;31.47;20.80
41947;BME280;27638;42.184;24.848;2022-07-18T07:12:45;100444.78;;;31.06;21.90
41947;BME280;27638;42.184;24.848;2022-07-18T07:15:11;100445.78;;;30.61;21.70
41947;BME280;27638;42.184;24.848;2022-07-18T07:17:37;100448.31;;;31.11;20.50
41947;BME280;27638;42.184;24.848;2022-07-18T07:20:04;100444.22;;;31.24;21.42
41947;BME280;27638;42.184;24.848;2022-07-18T07:22:30;100444.81;;;31.60;20.97
41947;BME280;27638;42.184;24.848;2022-07-18T07:24:56;100434.34;;;31.72;20.18
41947;BME280;27638;42.184;24.848;2022-07-18T07:27:21;100437.59;;;32.08;20.15
41947;BME280;27638;42.184;24.848;2022-07-18T07:29:47;100438.19;;;31.66;20.08
41947;BME280;27638;42.184;24.848;2022-07-18T07:32:12;100442.06;;;31.99;20.06
41947;BME280;27638;42.184;24.848;2022-07-18T07:34:38;100448.16;;;32.54;18.44
41947;BME280;27638;42.184;24.848;2022-07-18T07:37:03;100438.56;;;32.23;19.01
41947;BME280;27638;42.184;24.848;2022-07-18T07:39:29;100425.28;;;32.40;17.85
41947;BME280;27638;42.184;24.848;2022-07-18T07:41:54;100427.84;;;32.31;19.34
41947;BME280;27638;42.184;24.848;2022-07-18T07:44:20;100437.56;;;32.14;17.79
41947;BME280;27638;42.184;24.848;2022-07-18T07:46:45;100440.44;;;32.32;18.19
41947;BME280;27638;42.184;24.848;2022-07-18T07:49:10;100439.47;;;32.47;18.64
41947;BME280;27638;42.184;24.848;2022-07-18T07:51:36;100432.94;;;32.43;18.65
41947;BME280;27638;42.184;24.848;2022-07-18T07:54:02;100436.13;;;32.21;18.96
41947;BME280;27638;42.184;24.848;2022-07-18T07:56:28;100435.50;;;31.61;21.45
41947;BME280;27638;42.184;24.848;2022-07-18T07:58:53;100450.72;;;31.33;21.21
41947;BME280;27638;42.184;24.848;2022-07-18T08:01:18;100444.34;;;30.84;20.91
41947;BME280;27638;42.184;24.848;2022-07-18T08:03:45;100443.91;;;31.31;21.06
41947;BME280;27638;42.184;24.848;2022-07-18T08:06:13;100446.41;;;31.12;22.62
41947;BME280;27638;42.184;24.848;2022-07-18T08:08:39;100444.31;;;30.89;22.46
41947;BME280;27638;42.184;24.848;2022-07-18T08:11:04;100449.63;;;31.34;21.60
41947;BME280;27638;42.184;24.848;2022-07-18T08:13:30;100444.72;;;31.75;22.29
41947;BME280;27638;42.184;24.848;2022-07-18T08:15:55;100446.44;;;31.02;22.35
41947;BME280;27638;42.184;24.848;2022-07-18T08:18:21;100441.97;;;30.31;24.57
41947;BME280;27638;42.184;24.848;2022-07-18T08:20:46;100446.53;;;30.81;24.23
41947;BME280;27638;42.184;24.848;2022-07-18T08:23:12;100443.63;;;30.37;23.79
41947;BME280;27638;42.184;24.848;2022-07-18T08:25:40;100438.16;;;30.32;23.53
41947;BME280;27638;42.184;24.848;2022-07-18T08:28:06;100439.78;;;30.38;24.18
41947;BME280;27638;42.184;24.848;2022-07-18T08:30:32;100458.34;;;29.96;24.51
41947;BME280;27638;42.184;24.848;2022-07-18T08:32:58;100446.09;;;30.03;25.54
41947;BME280;27638;42.184;24.848;2022-07-18T08:35:24;100445.22;;;29.62;23.92
41947;BME280;27638;42.184;24.848;2022-07-18T08:37:50;100448.94;;;29.26;24.81
41947;BME280;27638;42.184;24.848;2022-07-18T08:40:16;100448.13;;;29.30;25.89
41947;BME280;27638;42.184;24.848;2022-07-18T08:42:42;100438.88;;;29.41;24.89
41947;BME280;27638;42.184;24.848;2022-07-18T08:45:08;100439.19;;;29.50;25.98
41947;BME280;27638;42.184;24.848;2022-07-18T08:47:33;100442.50;;;29.93;24.02
41947;BME280;27638;42.184;24.848;2022-07-18T08:50:00;100450.72;;;30.28;23.84
41947;BME280;27638;42.184;24.848;2022-07-18T08:52:27;100444.94;;;29.69;25.23
41947;BME280;27638;42.184;24.848;2022-07-18T08:54:54;100448.50;;;29.64;25.57
41947;BME280;27638;42.184;24.848;2022-07-18T08:57:19;100435.13;;;29.68;25.66
41947;BME280;27638;42.184;24.848;2022-07-18T08:59:45;100448.81;;;30.13;25.84
41947;BME280;27638;42.184;24.848;2022-07-18T09:02:10;100442.50;;;29.93;27.04
41947;BME280;27638;42.184;24.848;2022-07-18T09:04:43;100443.03;;;29.69;26.10
41947;BME280;27638;42.184;24.848;2022-07-18T09:07:10;100431.56;;;29.72;27.22
41947;BME280;27638;42.184;24.848;2022-07-18T09:09:55;100435.66;;;29.65;26.84
41947;BME280;27638;42.184;24.848;2022-07-18T09:12:24;100438.84;;;29.36;27.40
41947;BME280;27638;42.184;24.848;2022-07-18T09:14:50;100439.66;;;29.27;27.75
41947;BME280;27638;42.184;24.848;2022-07-18T09:17:27;100432.66;;;29.56;27.16
41947;BME280;27638;42.184;24.848;2022-07-18T09:20:07;100436.22;;;29.92;26.73
41947;BME280;27638;42.184;24.848;2022-07-18T09:22:36;100435.38;;;29.51;27.54
41947;BME280;27638;42.184;24.848;2022-07-18T09:27:44;100439.13;;;29.40;26.78
41947;BME280;27638;42.184;24.848;2022-07-18T09:30:33;100438.66;;;29.63;26.73
41947;BME280;27638;42.184;24.848;2022-07-18T09:35:37;100445.66;;;29.29;27.20
41947;BME280;27638;42.184;24.848;2022-07-18T09:38:08;100444.53;;;29.14;28.21
41947;BME280;27638;42.184;24.848;2022-07-18T09:40:39;100438.31;;;29.34;27.85
41947;BME280;27638;42.184;24.848;2022-07-18T09:43:07;100434.56;;;29.61;26.75
41947;BME280;27638;42.184;24.848;2022-07-18T09:45:34;100444.13;;;29.83;27.67
41947;BME280;27638;42.184;24.848;2022-07-18T09:48:02;100434.16;;;29.16;27.87
41947;BME280;27638;42.184;24.848;2022-07-18T09:50:31;100414.31;;;29.41;26.46
41947;BME280;27638;42.184;24.848;2022-07-18T09:53:20;100423.63;;;29.45;28.46
41947;BME280;27638;42.184;24.848;2022-07-18T09:56:12;100429.44;;;29.02;28.20
41947;BME280;27638;42.184;24.848;2022-07-18T09:58:51;100425.13;;;29.11;28.60
41947;BME280;27638;42.184;24.848;2022-07-18T10:01:17;100426.00;;;29.16;28.86
41947;BME280;27638;42.184;24.848;2022-07-18T10:03:42;100423.56;;;29.25;28.38
41947;BME280;27638;42.184;24.848;2022-07-18T10:06:08;100428.09;;;28.99;28.91
41947;BME280;27638;42.184;24.848;2022-07-18T10:08:35;100416.78;;;28.75;29.36
41947;BME280;27638;42.184;24.848;2022-07-18T10:11:03;100416.88;;;28.96;28.53
41947;BME280;27638;42.184;24.848;2022-07-18T10:13:32;100406.50;;;28.87;28.85
41947;BME280;27638;42.184;24.848;2022-07-18T10:15:58;100399.00;;;29.20;29.61
41947;BME280;27638;42.184;24.848;2022-07-18T10:18:26;100396.47;;;29.03;29.29
41947;BME280;27638;42.184;24.848;2022-07-18T10:21:04;100408.16;;;28.93;28.65
41947;BME280;27638;42.184;24.848;2022-07-18T10:23:35;100398.91;;;28.95;28.23
41947;BME280;27638;42.184;24.848;2022-07-18T10:26:19;100400.38;;;29.33;28.77
41947;BME280;27638;42.184;24.848;2022-07-18T10:32:01;100391.66;;;29.26;28.14
41947;BME280;27638;42.184;24.848;2022-07-18T10:34:32;100377.19;;;29.20;28.28
41947;BME280;27638;42.184;24.848;2022-07-18T10:39:41;100382.72;;;29.45;28.99
41947;BME280;27638;42.184;24.848;2022-07-18T10:42:13;100379.16;;;29.55;28.96
41947;BME280;27638;42.184;24.848;2022-07-18T10:44:39;100379.97;;;29.45;28.37
41947;BME280;27638;42.184;24.848;2022-07-18T11:00:23;100376.97;;;29.62;28.82
41947;BME280;27638;42.184;24.848;2022-07-18T11:03:08;100368.78;;;29.72;28.15
41947;BME280;27638;42.184;24.848;2022-07-18T11:05:36;100363.63;;;29.66;28.92
41947;BME280;27638;42.184;24.848;2022-07-18T11:18:34;100354.03;;;30.09;29.73
41947;BME280;27638;42.184;24.848;2022-07-18T11:21:25;100355.41;;;29.96;27.94
41947;BME280;27638;42.184;24.848;2022-07-18T11:23:53;100348.06;;;29.71;28.03
41947;BME280;27638;42.184;24.848;2022-07-18T11:26:23;100347.50;;;29.59;29.30
41947;BME280;27638;42.184;24.848;2022-07-18T11:28:57;100343.41;;;29.82;27.25
41947;BME280;27638;42.184;24.848;2022-07-18T11:31:24;100325.13;;;29.72;27.04
41947;BME280;27638;42.184;24.848;2022-07-18T11:33:50;100331.66;;;30.02;27.50
41947;BME280;27638;42.184;24.848;2022-07-18T11:36:18;100337.91;;;30.33;27.18
41947;BME280;27638;42.184;24.848;2022-07-18T11:38:52;100330.47;;;30.48;27.13
41947;BME280;27638;42.184;24.848;2022-07-18T11:41:19;100338.75;;;30.13;27.08
41947;BME280;27638;42.184;24.848;2022-07-18T11:43:47;100337.66;;;30.24;27.21
41947;BME280;27638;42.184;24.848;2022-07-18T11:46:15;100327.78;;;30.33;27.92
41947;BME280;27638;42.184;24.848;2022-07-18T11:48:43;100321.78;;;30.26;26.74
41947;BME280;27638;42.184;24.848;2022-07-18T11:51:18;100320.94;;;30.36;25.85
41947;BME280;27638;42.184;24.848;2022-07-18T11:53:48;100322.00;;;30.45;25.59
41947;BME280;27638;42.184;24.848;2022-07-18T11:56:15;100322.50;;;30.62;25.68
41947;BME280;27638;42.184;24.848;2022-07-18T11:58:42;100314.03;;;30.54;25.11
41947;BME280;27638;42.184;24.848;2022-07-18T12:01:08;100320.09;;;30.40;26.86
41947;BME280;27638;42.184;24.848;2022-07-18T12:03:36;100314.69;;;30.25;26.37
41947;BME280;27638;42.184;24.848;2022-07-18T12:06:17;100302.97;;;30.09;26.43
41947;BME280;27638;42.184;24.848;2022-07-18T12:08:50;100298.56;;;30.29;25.92
41947;BME280;27638;42.184;24.848;2022-07-18T12:11:34;100288.41;;;30.39;26.02
41947;BME280;27638;42.184;24.848;2022-07-18T12:14:01;100293.81;;;30.55;26.69
41947;BME280;27638;42.184;24.848;2022-07-18T12:16:34;100296.59;;;30.44;25.23
41947;BME280;27638;42.184;24.848;2022-07-18T12:19:03;100299.31;;;30.44;25.65
41947;BME280;27638;42.184;24.848;2022-07-18T12:21:52;100296.88;;;30.43;25.79
41947;BME280;27638;42.184;24.848;2022-07-18T12:24:31;100280.97;;;30.60;25.72
41947;BME280;27638;42.184;24.848;2022-07-18T12:27:14;100277.94;;;30.67;26.92
41947;BME280;27638;42.184;24.848;2022-07-18T12:30:01;100274.22;;;30.92;25.35
41947;BME280;27638;42.184;24.848;2022-07-18T12:35:07;100275.00;;;30.97;25.86
41947;BME280;27638;42.184;24.848;2022-07-18T12:37:33;100277.09;;;31.16;25.45
41947;BME280;27638;42.184;24.848;2022-07-18T12:40:02;100271.34;;;31.12;24.96
41947;BME280;27638;42.184;24.848;2022-07-18T12:42:30;100273.53;;;31.10;26.21
41947;BME280;27638;42.184;24.848;2022-07-18T12:44:57;100267.03;;;30.62;26.58
41947;BME280;27638;42.184;24.848;2022-07-18T12:47:22;100265.75;;;30.39;27.29
41947;BME280;27638;42.184;24.848;2022-07-18T12:49:48;100272.84;;;30.40;28.15
41947;BME280;27638;42.184;24.848;2022-07-18T12:52:13;100263.88;;;30.29;26.82
41947;BME280;27638;42.184;24.848;2022-07-18T12:54:39;100262.25;;;30.28;27.53
41947;BME280;27638;42.184;24.848;2022-07-18T12:57:04;100258.44;;;30.24;27.03
41947;BME280;27638;42.184;24.848;2022-07-18T12:59:29;100263.03;;;30.34;26.87
41947;BME280;27638;42.184;24.848;2022-07-18T13:01:55;100255.69;;;30.29;26.74
41947;BME280;27638;42.184;24.848;2022-07-18T13:04:20;100260.06;;;30.25;27.21
41947;BME280;27638;42.184;24.848;2022-07-18T13:06:46;100252.97;;;30.24;28.52
41947;BME280;27638;42.184;24.848;2022-07-18T13:09:11;100253.50;;;30.26;28.07
41947;BME280;27638;42.184;24.848;2022-07-18T13:11:37;100246.97;;;30.22;28.54
41947;BME280;27638;42.184;24.848;2022-07-18T13:14:06;100246.13;;;30.16;28.66
41947;BME280;27638;42.184;24.848;2022-07-18T13:16:31;100241.66;;;30.46;27.53
41947;BME280;27638;42.184;24.848;2022-07-18T13:18:57;100252.25;;;30.63;29.09
41947;BME280;27638;42.184;24.848;2022-07-18T13:21:22;100240.38;;;30.28;29.31
41947;BME280;27638;42.184;24.848;2022-07-18T13:23:47;100234.88;;;30.38;29.11